Time;durP1;ratioP1;P1;durP2;ratioP2;P2;SDS_P1;SDS_P2;PMS_P1;PMS_P2;Temp;Humidity;BMP_temperature;BMP_pressure;BME280_temperature;BME280_humidity;BME280_pressure;Samples;Min_cycle;Max_cycle;Signal;HPM_P1;HPM_P2
2021/10/04 00:00:36;;;;;;;7.60;1.07;;;;;;;;;;5038260;28;20541;-84
2021/10/04 00:03:03;;;;;;;7.43;1.00;;;;;;;;;;5034125;28;20460;-84
2021/10/04 00:05:30;;;;;;;10.07;1.30;;;;;;;;;;5038232;28;20474;-84
2021/10/04 00:07:57;;;;;;;8.50;0.90;;;;;;;;;;5038868;28;20453;-84
2021/10/04 00:10:24;;;;;;;8.60;1.13;;;;;;;;;;5038879;28;20468;-84
2021/10/04 00:12:51;;;;;;;8.50;1.10;;;;;;;;;;5047065;28;20465;-84
2021/10/04 00:15:21;;;;;;;8.40;1.30;;;;;;;;;;5043216;28;20484;-85
2021/10/04 00:17:49;;;;;;;8.70;1.40;;;;;;;;;;5037018;28;20491;-85
2021/10/04 00:20:18;;;;;;;8.17;1.20;;;;;;;;;;5062484;28;20501;-84
2021/10/04 00:22:45;;;;;;;8.37;2.20;;;;;;;;;;5029902;28;20454;-84
2021/10/04 00:25:13;;;;;;;9.23;1.20;;;;;;;;;;5036295;28;20456;-84
2021/10/04 00:27:40;;;;;;;7.73;0.93;;;;;;;;;;5035546;28;20458;-83
2021/10/04 00:30:07;;;;;;;8.67;1.30;;;;;;;;;;5036731;28;20464;-82
2021/10/04 00:32:36;;;;;;;8.90;1.13;;;;;;;;;;5035016;28;20449;-82
2021/10/04 00:35:04;;;;;;;10.70;1.30;;;;;;;;;;5031503;28;20456;-83
2021/10/04 00:37:31;;;;;;;7.47;0.93;;;;;;;;;;5030042;28;20488;-82
2021/10/04 00:39:59;;;;;;;7.63;1.10;;;;;;;;;;5042290;28;20997;-84
2021/10/04 00:42:26;;;;;;;8.00;1.17;;;;;;;;;;5053748;28;20451;-84
2021/10/04 00:44:54;;;;;;;7.50;1.00;;;;;;;;;;5032498;28;20456;-84
2021/10/04 00:47:21;;;;;;;7.30;0.90;;;;;;;;;;5044604;28;20458;-84
2021/10/04 00:49:49;;;;;;;7.97;1.00;;;;;;;;;;5048463;28;20451;-84
2021/10/04 00:52:17;;;;;;;7.50;1.00;;;;;;;;;;5047807;28;20993;-84
2021/10/04 00:54:44;;;;;;;14.00;1.50;;;;;;;;;;5039731;28;20452;-84
2021/10/04 00:57:11;;;;;;;8.93;1.20;;;;;;;;;;5023559;28;20475;-84
2021/10/04 00:59:38;;;;;;;8.30;1.00;;;;;;;;;;5038081;28;20517;-84
2021/10/04 01:02:05;;;;;;;8.70;1.20;;;;;;;;;;5035704;28;20455;-84
2021/10/04 01:04:33;;;;;;;10.27;1.30;;;;;;;;;;5036960;28;20457;-84
2021/10/04 01:07:01;;;;;;;10.73;0.90;;;;;;;;;;5035137;28;20482;-83
2021/10/04 01:09:29;;;;;;;7.30;1.07;;;;;;;;;;5033692;28;20458;-83
2021/10/04 01:11:57;;;;;;;9.87;1.10;;;;;;;;;;5044202;28;20460;-83
2021/10/04 01:14:24;;;;;;;10.20;1.10;;;;;;;;;;5037990;28;20455;-83
2021/10/04 01:16:52;;;;;;;7.30;1.00;;;;;;;;;;5034923;28;20463;-81
2021/10/04 01:19:19;;;;;;;7.70;1.30;;;;;;;;;;5034620;28;20500;-83
2021/10/04 01:21:48;;;;;;;7.30;1.00;;;;;;;;;;5035305;28;20458;-84
2021/10/04 01:24:15;;;;;;;7.20;1.00;;;;;;;;;;5034563;28;20957;-84
2021/10/04 01:26:42;;;;;;;8.47;1.10;;;;;;;;;;5029805;28;20467;-84
2021/10/04 01:29:09;;;;;;;7.93;1.00;;;;;;;;;;5034494;28;20458;-82
2021/10/04 01:31:36;;;;;;;7.27;1.10;;;;;;;;;;5035327;28;20443;-83
2021/10/04 01:34:04;;;;;;;7.97;1.00;;;;;;;;;;5034640;28;20459;-83
2021/10/04 01:36:32;;;;;;;7.83;1.10;;;;;;;;;;5034395;28;20509;-83
2021/10/04 01:39:00;;;;;;;8.87;1.17;;;;;;;;;;5034574;28;20484;-83
2021/10/04 01:41:27;;;;;;;12.37;1.20;;;;;;;;;;5035429;28;20458;-83
2021/10/04 01:43:55;;;;;;;8.20;1.00;;;;;;;;;;5044610;28;20472;-82
2021/10/04 01:46:22;;;;;;;7.80;1.23;;;;;;;;;;5046144;28;20484;-83
2021/10/04 01:48:50;;;;;;;9.90;1.83;;;;;;;;;;5034959;28;20452;-85
2021/10/04 01:51:17;;;;;;;7.50;1.10;;;;;;;;;;5039064;28;20452;-84
2021/10/04 01:53:44;;;;;;;10.27;1.10;;;;;;;;;;5039074;28;20461;-85
2021/10/04 01:56:13;;;;;;;7.40;1.17;;;;;;;;;;5031087;28;20489;-84
2021/10/04 01:58:40;;;;;;;8.60;1.20;;;;;;;;;;5038462;28;20492;-84
2021/10/04 02:01:07;;;;;;;7.37;0.97;;;;;;;;;;5038490;28;20449;-84
2021/10/04 02:03:34;;;;;;;8.30;1.00;;;;;;;;;;5038948;28;20467;-85
2021/10/04 02:06:02;;;;;;;7.63;1.00;;;;;;;;;;5042575;28;20475;-85
2021/10/04 02:08:29;;;;;;;7.63;0.97;;;;;;;;;;5038936;28;20442;-85
2021/10/04 02:10:56;;;;;;;7.97;1.03;;;;;;;;;;5030629;28;20454;-85
2021/10/04 02:13:25;;;;;;;7.17;1.07;;;;;;;;;;5038160;28;20445;-85
2021/10/04 02:15:52;;;;;;;7.30;0.90;;;;;;;;;;5028373;28;20786;-85
2021/10/04 02:18:19;;;;;;;7.20;1.20;;;;;;;;;;5031119;28;20491;-85
2021/10/04 02:20:47;;;;;;;7.10;1.13;;;;;;;;;;5048296;28;20780;-86
2021/10/04 02:23:15;;;;;;;7.17;1.07;;;;;;;;;;5042736;28;20915;-82
2021/10/04 02:25:44;;;;;;;7.87;1.23;;;;;;;;;;5035033;28;20473;-85
2021/10/04 02:28:12;;;;;;;7.27;0.90;;;;;;;;;;5033952;28;20448;-85
2021/10/04 02:30:41;;;;;;;7.93;1.00;;;;;;;;;;5035269;28;20539;-86
2021/10/04 02:33:08;;;;;;;9.43;1.10;;;;;;;;;;5036995;28;20448;-85
2021/10/04 02:35:35;;;;;;;7.43;0.90;;;;;;;;;;5043930;28;20476;-84
2021/10/04 02:38:02;;;;;;;11.20;1.13;;;;;;;;;;5040185;28;20446;-83
2021/10/04 02:40:30;;;;;;;8.00;1.10;;;;;;;;;;5039564;28;20480;-84
2021/10/04 02:42:57;;;;;;;7.43;1.13;;;;;;;;;;5039671;28;20429;-84
2021/10/04 02:45:25;;;;;;;8.23;1.10;;;;;;;;;;5027534;28;20472;-85
2021/10/04 02:47:55;;;;;;;9.33;1.00;;;;;;;;;;5036036;28;20460;-84
2021/10/04 02:50:23;;;;;;;8.00;1.03;;;;;;;;;;5047601;28;20450;-85
2021/10/04 02:52:50;;;;;;;10.03;1.30;;;;;;;;;;5041417;28;20475;-85
2021/10/04 02:55:18;;;;;;;7.97;1.13;;;;;;;;;;5032789;28;20484;-84
2021/10/04 02:57:45;;;;;;;7.60;0.97;;;;;;;;;;5042633;28;20547;-85
2021/10/04 03:00:15;;;;;;;7.17;0.90;;;;;;;;;;5038510;28;20502;-84
2021/10/04 03:02:42;;;;;;;7.37;1.20;;;;;;;;;;5039136;28;20829;-84
2021/10/04 03:05:11;;;;;;;7.30;0.97;;;;;;;;;;5028807;28;20474;-85
2021/10/04 03:07:38;;;;;;;7.67;1.00;;;;;;;;;;5026062;28;20457;-82
2021/10/04 03:10:05;;;;;;;8.63;1.37;;;;;;;;;;5037566;28;20452;-82
2021/10/04 03:12:32;;;;;;;9.47;1.00;;;;;;;;;;5040628;28;20461;-81
2021/10/04 03:14:59;;;;;;;11.73;1.20;;;;;;;;;;5024280;28;20458;-81
2021/10/04 03:17:27;;;;;;;7.43;1.10;;;;;;;;;;5042027;28;20459;-81
2021/10/04 03:19:54;;;;;;;6.93;1.00;;;;;;;;;;5047230;28;20520;-83
2021/10/04 03:22:23;;;;;;;8.37;1.20;;;;;;;;;;5050538;28;20462;-83
2021/10/04 03:24:50;;;;;;;7.30;1.00;;;;;;;;;;5042574;28;20456;-83
2021/10/04 03:27:17;;;;;;;7.77;0.93;;;;;;;;;;5040095;28;20466;-83
2021/10/04 03:29:44;;;;;;;7.90;0.83;;;;;;;;;;5040529;28;20453;-84
2021/10/04 03:32:12;;;;;;;7.83;1.20;;;;;;;;;;5040743;28;20448;-83
2021/10/04 03:34:39;;;;;;;8.33;1.20;;;;;;;;;;5034112;28;20465;-83
2021/10/04 03:37:06;;;;;;;8.13;0.90;;;;;;;;;;5038552;28;20479;-83
2021/10/04 03:39:34;;;;;;;10.30;1.03;;;;;;;;;;5039927;28;20488;-84
2021/10/04 03:42:01;;;;;;;8.40;1.30;;;;;;;;;;5039442;28;20453;-83
2021/10/04 03:44:29;;;;;;;7.90;1.00;;;;;;;;;;5038372;28;20572;-84
2021/10/04 03:46:56;;;;;;;8.60;1.20;;;;;;;;;;5043036;28;20486;-84
2021/10/04 03:49:23;;;;;;;9.40;1.40;;;;;;;;;;5042149;28;20460;-84
2021/10/04 03:51:50;;;;;;;7.73;1.13;;;;;;;;;;5021531;28;20451;-84
2021/10/04 03:54:17;;;;;;;9.03;2.50;;;;;;;;;;5022709;28;21546;-84
2021/10/04 03:56:46;;;;;;;7.27;1.10;;;;;;;;;;5039321;28;20481;-85
2021/10/04 03:59:13;;;;;;;7.70;1.17;;;;;;;;;;5040777;28;20484;-85
2021/10/04 04:01:40;;;;;;;7.27;1.20;;;;;;;;;;5040255;28;20459;-85
2021/10/04 04:04:07;;;;;;;9.30;1.00;;;;;;;;;;5020636;28;20824;-86
2021/10/04 04:06:35;;;;;;;8.10;0.90;;;;;;;;;;5025426;28;20478;-86
2021/10/04 04:09:02;;;;;;;7.80;1.17;;;;;;;;;;5014002;28;20979;-85
2021/10/04 04:11:29;;;;;;;8.67;1.10;;;;;;;;;;5021219;28;20459;-85
2021/10/04 04:13:58;;;;;;;7.67;1.47;;;;;;;;;;5031474;28;20462;-85
2021/10/04 04:16:25;;;;;;;8.10;1.50;;;;;;;;;;5035700;28;20475;-86
2021/10/04 04:18:52;;;;;;;9.30;1.30;;;;;;;;;;5036679;28;20487;-87
2021/10/04 04:21:19;;;;;;;9.30;1.50;;;;;;;;;;5023694;28;20461;-85
2021/10/04 04:23:46;;;;;;;7.93;1.23;;;;;;;;;;5037104;28;20456;-85
2021/10/04 04:26:13;;;;;;;8.70;1.53;;;;;;;;;;5025657;28;20489;-85
2021/10/04 04:28:40;;;;;;;7.53;1.20;;;;;;;;;;5024777;28;20457;-86
2021/10/04 04:31:09;;;;;;;10.63;1.43;;;;;;;;;;5036743;28;20853;-88
2021/10/04 04:33:36;;;;;;;7.00;1.10;;;;;;;;;;5034908;28;20852;-86
2021/10/04 04:36:03;;;;;;;6.97;1.17;;;;;;;;;;5033214;28;20478;-87
2021/10/04 04:38:30;;;;;;;7.97;1.20;;;;;;;;;;5034747;28;20479;-85
2021/10/04 04:40:57;;;;;;;7.50;1.07;;;;;;;;;;5024245;28;20458;-86
2021/10/04 04:43:25;;;;;;;7.40;0.97;;;;;;;;;;5033252;28;20960;-85
2021/10/04 04:45:52;;;;;;;7.30;1.00;;;;;;;;;;5013202;28;20474;-86
2021/10/04 04:48:20;;;;;;;8.73;1.13;;;;;;;;;;5016966;28;20449;-86
2021/10/04 04:50:47;;;;;;;8.47;1.23;;;;;;;;;;5034648;28;20455;-87
2021/10/04 04:53:15;;;;;;;9.20;1.20;;;;;;;;;;5036337;28;20459;-86
2021/10/04 04:55:42;;;;;;;8.17;1.23;;;;;;;;;;5037717;28;20491;-86
2021/10/04 04:58:09;;;;;;;9.97;1.40;;;;;;;;;;5037677;28;20536;-87
2021/10/04 05:00:37;;;;;;;7.40;1.00;;;;;;;;;;5036063;28;20489;-86
2021/10/04 05:03:06;;;;;;;9.33;1.30;;;;;;;;;;5034924;28;20465;-87
2021/10/04 05:05:34;;;;;;;8.03;1.80;;;;;;;;;;5036986;28;20494;-88
2021/10/04 05:08:01;;;;;;;11.80;1.60;;;;;;;;;;5052733;28;20457;-87
2021/10/04 05:10:29;;;;;;;9.13;1.10;;;;;;;;;;5053310;28;20952;-87
2021/10/04 05:12:56;;;;;;;7.83;1.20;;;;;;;;;;5044865;28;20467;-88
2021/10/04 05:15:23;;;;;;;7.13;1.10;;;;;;;;;;5036280;28;20854;-88
2021/10/04 05:17:50;;;;;;;7.17;1.13;;;;;;;;;;5043711;28;21023;-87
2021/10/04 05:20:18;;;;;;;7.30;1.10;;;;;;;;;;5055817;28;20483;-88
2021/10/04 05:22:46;;;;;;;10.50;1.30;;;;;;;;;;5035927;28;20453;-85
2021/10/04 05:25:13;;;;;;;8.53;1.40;;;;;;;;;;5033892;28;20479;-86
2021/10/04 05:27:40;;;;;;;8.10;1.20;;;;;;;;;;5035175;28;20451;-85
2021/10/04 05:30:08;;;;;;;9.20;1.47;;;;;;;;;;5039923;28;20450;-86
2021/10/04 05:32:35;;;;;;;10.23;1.80;;;;;;;;;;5037298;28;20526;-85
2021/10/04 05:35:02;;;;;;;9.47;1.70;;;;;;;;;;5039299;28;20466;-84
2021/10/04 05:37:30;;;;;;;8.60;1.47;;;;;;;;;;5037372;28;20944;-85
2021/10/04 05:39:58;;;;;;;7.30;1.30;;;;;;;;;;5037514;28;20491;-85
2021/10/04 05:42:27;;;;;;;9.63;1.30;;;;;;;;;;5034567;28;20948;-85
2021/10/04 05:44:54;;;;;;;8.13;1.60;;;;;;;;;;5036072;28;20542;-85
2021/10/04 05:47:21;;;;;;;8.20;1.20;;;;;;;;;;5036328;28;20455;-86
2021/10/04 05:49:48;;;;;;;7.50;1.10;;;;;;;;;;5036399;28;20451;-86
2021/10/04 05:52:16;;;;;;;7.50;1.00;;;;;;;;;;5025478;28;20475;-85
2021/10/04 05:54:43;;;;;;;8.63;1.50;;;;;;;;;;5020761;28;20487;-86
2021/10/04 05:57:11;;;;;;;7.97;1.27;;;;;;;;;;5017531;28;20489;-85
2021/10/04 05:59:38;;;;;;;11.67;1.40;;;;;;;;;;5040262;28;20488;-86
2021/10/04 06:02:06;;;;;;;8.87;1.27;;;;;;;;;;5033563;28;20456;-85
2021/10/04 06:04:33;;;;;;;10.00;1.50;;;;;;;;;;5034057;28;21005;-86
2021/10/04 06:07:00;;;;;;;8.23;1.10;;;;;;;;;;5048903;28;20458;-86
2021/10/04 06:09:27;;;;;;;8.40;1.33;;;;;;;;;;5059033;28;20502;-87
2021/10/04 06:11:54;;;;;;;7.90;1.17;;;;;;;;;;5039701;28;20481;-85
2021/10/04 06:14:23;;;;;;;13.43;1.63;;;;;;;;;;5040139;28;20449;-85
2021/10/04 06:16:50;;;;;;;7.83;1.10;;;;;;;;;;5039402;28;20483;-85
2021/10/04 06:19:18;;;;;;;10.20;1.37;;;;;;;;;;5026525;28;20483;-86
2021/10/04 06:21:45;;;;;;;10.57;1.40;;;;;;;;;;5024343;28;20452;-85
2021/10/04 06:24:12;;;;;;;7.50;1.30;;;;;;;;;;5048582;28;21032;-85
2021/10/04 06:26:39;;;;;;;8.17;1.17;;;;;;;;;;5050844;28;20539;-84
2021/10/04 06:29:06;;;;;;;8.20;1.33;;;;;;;;;;5034302;28;20456;-85
2021/10/04 06:31:35;;;;;;;7.20;1.07;;;;;;;;;;5034157;28;20550;-86
2021/10/04 06:34:02;;;;;;;7.10;1.13;;;;;;;;;;5033950;28;20451;-87
2021/10/04 06:36:29;;;;;;;7.60;1.33;;;;;;;;;;5034420;28;20564;-86
2021/10/04 06:38:56;;;;;;;7.93;1.10;;;;;;;;;;5034174;28;20847;-88
2021/10/04 06:41:23;;;;;;;14.00;1.20;;;;;;;;;;5035054;28;20510;-86
2021/10/04 06:43:51;;;;;;;7.90;1.40;;;;;;;;;;5039038;28;20450;-84
2021/10/04 06:46:18;;;;;;;7.97;1.30;;;;;;;;;;5034003;28;21008;-86
2021/10/04 06:48:47;;;;;;;9.57;1.80;;;;;;;;;;5027398;28;20446;-84
2021/10/04 06:51:14;;;;;;;9.20;1.27;;;;;;;;;;5023267;28;20477;-85
2021/10/04 06:53:41;;;;;;;7.20;1.10;;;;;;;;;;5026009;28;20457;-85
2021/10/04 06:56:10;;;;;;;10.30;1.87;;;;;;;;;;5029713;28;20506;-84
2021/10/04 06:58:38;;;;;;;7.83;1.40;;;;;;;;;;5027699;28;20821;-84
2021/10/04 07:01:05;;;;;;;7.67;1.33;;;;;;;;;;5032889;28;21000;-85
2021/10/04 07:03:32;;;;;;;8.80;1.60;;;;;;;;;;5045812;28;20452;-86
2021/10/04 07:06:01;;;;;;;10.23;1.50;;;;;;;;;;5036508;28;21047;-85
2021/10/04 07:08:28;;;;;;;9.20;1.60;;;;;;;;;;5041026;28;20498;-84
2021/10/04 07:10:56;;;;;;;8.07;1.30;;;;;;;;;;5038183;28;20447;-83
2021/10/04 07:13:23;;;;;;;8.87;1.20;;;;;;;;;;5041800;28;20451;-84
2021/10/04 07:15:51;;;;;;;7.20;1.00;;;;;;;;;;5043144;28;21001;-83
2021/10/04 07:18:18;;;;;;;8.33;1.20;;;;;;;;;;5037938;28;20991;-85
2021/10/04 07:20:45;;;;;;;8.30;1.23;;;;;;;;;;5024732;28;20480;-83
2021/10/04 07:23:13;;;;;;;7.80;1.27;;;;;;;;;;5027669;28;20982;-84
2021/10/04 07:25:41;;;;;;;7.70;1.23;;;;;;;;;;5026752;28;20548;-85
2021/10/04 07:28:08;;;;;;;7.10;1.10;;;;;;;;;;5032446;28;20453;-84
2021/10/04 07:30:36;;;;;;;7.03;1.03;;;;;;;;;;5022970;28;20455;-84
2021/10/04 07:33:03;;;;;;;11.13;1.63;;;;;;;;;;5043782;28;20815;-85
2021/10/04 07:35:30;;;;;;;8.17;1.00;;;;;;;;;;5040283;28;20591;-85
2021/10/04 07:37:58;;;;;;;11.20;1.20;;;;;;;;;;5031344;28;20462;-85
2021/10/04 07:40:26;;;;;;;7.47;1.20;;;;;;;;;;5035837;28;20491;-84
2021/10/04 07:42:54;;;;;;;12.80;1.80;;;;;;;;;;5032364;28;20461;-85
2021/10/04 07:45:21;;;;;;;8.27;1.30;;;;;;;;;;5039999;28;20465;-85
2021/10/04 07:47:49;;;;;;;9.27;1.10;;;;;;;;;;5035612;28;20482;-84
2021/10/04 07:50:16;;;;;;;8.23;1.20;;;;;;;;;;5027566;28;20452;-84
2021/10/04 07:52:43;;;;;;;10.43;1.63;;;;;;;;;;5033430;28;20529;-85
2021/10/04 07:55:11;;;;;;;10.57;1.20;;;;;;;;;;5026613;28;20860;-84
2021/10/04 07:57:39;;;;;;;7.93;1.37;;;;;;;;;;5032241;28;20452;-85
2021/10/04 08:00:08;;;;;;;9.60;1.43;;;;;;;;;;5031421;28;20490;-85
2021/10/04 08:02:36;;;;;;;11.00;1.30;;;;;;;;;;5035881;28;20460;-86
2021/10/04 08:05:04;;;;;;;10.33;1.70;;;;;;;;;;5041547;28;20476;-85
2021/10/04 08:07:31;;;;;;;8.50;1.37;;;;;;;;;;5038019;28;20455;-85
2021/10/04 08:09:58;;;;;;;8.80;1.60;;;;;;;;;;5039666;28;20457;-84
2021/10/04 08:12:25;;;;;;;11.80;1.40;;;;;;;;;;5038382;28;20451;-85
2021/10/04 08:14:54;;;;;;;9.27;2.90;;;;;;;;;;5039706;28;20468;-85
2021/10/04 08:17:21;;;;;;;8.97;1.07;;;;;;;;;;5041475;28;20532;-86
2021/10/04 08:19:48;;;;;;;8.00;1.40;;;;;;;;;;5041838;28;20491;-86
2021/10/04 08:22:16;;;;;;;8.60;1.10;;;;;;;;;;5039669;28;20847;-85
2021/10/04 08:24:43;;;;;;;7.80;1.20;;;;;;;;;;5045119;28;20529;-86
2021/10/04 08:27:10;;;;;;;8.40;1.20;;;;;;;;;;5050236;28;20525;-84
2021/10/04 08:29:37;;;;;;;8.90;1.20;;;;;;;;;;5019001;28;20459;-86
2021/10/04 08:32:06;;;;;;;8.17;1.33;;;;;;;;;;5031677;28;20543;-86
2021/10/04 08:34:34;;;;;;;8.73;1.10;;;;;;;;;;5032019;28;20452;-85
2021/10/04 08:37:01;;;;;;;8.17;1.20;;;;;;;;;;5030820;28;20479;-84
2021/10/04 08:39:28;;;;;;;8.90;1.03;;;;;;;;;;5032526;28;20830;-85
2021/10/04 08:41:56;;;;;;;10.63;1.20;;;;;;;;;;5031204;28;20487;-84
2021/10/04 08:44:24;;;;;;;13.00;1.20;;;;;;;;;;5032181;28;21032;-85
2021/10/04 08:46:51;;;;;;;7.73;1.20;;;;;;;;;;5030399;28;20544;-84
2021/10/04 08:49:20;;;;;;;9.27;1.00;;;;;;;;;;5026362;28;20458;-85
2021/10/04 08:51:49;;;;;;;8.80;1.83;;;;;;;;;;5031339;28;20445;-84
2021/10/04 08:54:21;;;;;;;8.57;1.10;;;;;;;;;;5011318;28;20553;-85
2021/10/04 08:56:48;;;;;;;7.23;1.10;;;;;;;;;;5025787;28;21193;-87
2021/10/04 08:59:16;;;;;;;8.63;1.20;;;;;;;;;;5022445;28;20842;-85
2021/10/04 09:01:43;;;;;;;8.33;1.40;;;;;;;;;;5027715;28;20486;-86
2021/10/04 09:04:10;;;;;;;9.20;1.20;;;;;;;;;;5034858;28;20481;-84
2021/10/04 09:06:40;;;;;;;8.10;1.20;;;;;;;;;;5033736;28;20549;-84
2021/10/04 09:09:08;;;;;;;9.83;1.10;;;;;;;;;;5030573;28;20473;-84
2021/10/04 09:11:36;;;;;;;9.67;1.20;;;;;;;;;;5023480;28;20455;-84
2021/10/04 09:14:11;;;;;;;9.10;1.30;;;;;;;;;;5037378;28;20456;-86
2021/10/04 09:16:57;;;;;;;9.87;1.43;;;;;;;;;;5037265;28;20480;-84
2021/10/04 09:19:26;;;;;;;8.90;1.20;;;;;;;;;;5051890;28;20451;-85
2021/10/04 09:22:08;;;;;;;8.53;1.20;;;;;;;;;;5042345;28;20487;-84
2021/10/04 09:24:36;;;;;;;7.90;1.30;;;;;;;;;;5037735;28;20459;-83
2021/10/04 09:27:04;;;;;;;11.90;2.50;;;;;;;;;;5036429;28;20486;-84
2021/10/04 09:29:45;;;;;;;7.90;1.13;;;;;;;;;;5036454;28;20452;-83
2021/10/04 09:32:13;;;;;;;9.93;1.00;;;;;;;;;;5036574;28;20539;-83
2021/10/04 09:34:40;;;;;;;12.60;2.07;;;;;;;;;;5039228;28;20693;-84
2021/10/04 09:37:09;;;;;;;9.83;1.40;;;;;;;;;;5037161;28;20461;-82
2021/10/04 09:39:37;;;;;;;9.20;1.10;;;;;;;;;;5036572;28;20456;-81
2021/10/04 09:42:06;;;;;;;8.20;1.27;;;;;;;;;;5047412;28;20481;-81
2021/10/04 09:44:44;;;;;;;17.73;1.60;;;;;;;;;;5038816;28;20454;-83
2021/10/04 09:47:11;;;;;;;8.20;0.90;;;;;;;;;;5018652;28;20479;-84
2021/10/04 09:49:46;;;;;;;8.80;1.37;;;;;;;;;;5032240;28;20463;-83
2021/10/04 09:52:15;;;;;;;8.40;1.20;;;;;;;;;;5030586;28;20432;-82
2021/10/04 09:54:44;;;;;;;9.73;1.03;;;;;;;;;;5037840;28;20532;-84
2021/10/04 09:57:17;;;;;;;11.33;1.10;;;;;;;;;;5036205;28;20481;-85
2021/10/04 09:59:44;;;;;;;11.90;1.40;;;;;;;;;;5035048;28;20460;-85
2021/10/04 10:02:13;;;;;;;11.23;1.43;;;;;;;;;;5037085;28;20481;-82
2021/10/04 10:04:40;;;;;;;11.03;1.30;;;;;;;;;;5038274;28;20523;-83
2021/10/04 10:07:08;;;;;;;8.90;1.27;;;;;;;;;;5036186;28;20472;-84
2021/10/04 10:09:37;;;;;;;9.60;1.07;;;;;;;;;;5031401;28;20463;-82
2021/10/04 10:12:05;;;;;;;7.63;1.00;;;;;;;;;;5041152;28;20433;-83
2021/10/04 10:14:39;;;;;;;10.63;2.10;;;;;;;;;;5041981;28;20474;-82
2021/10/04 10:17:07;;;;;;;12.87;4.90;;;;;;;;;;5039782;28;21439;-82
2021/10/04 10:19:38;;;;;;;15.60;4.63;;;;;;;;;;5039786;28;20452;-84
2021/10/04 10:22:12;;;;;;;10.50;3.10;;;;;;;;;;5039864;28;20517;-82
2021/10/04 10:24:40;;;;;;;10.10;2.70;;;;;;;;;;5037204;28;20457;-82
2021/10/04 10:27:08;;;;;;;8.40;1.47;;;;;;;;;;5050508;28;20472;-82
2021/10/04 10:29:35;;;;;;;10.17;1.60;;;;;;;;;;5043807;28;20540;-82
2021/10/04 10:32:26;;;;;;;8.80;1.37;;;;;;;;;;5036443;28;20463;-81
2021/10/04 10:34:55;;;;;;;8.30;1.40;;;;;;;;;;5029693;28;20455;-82
2021/10/04 10:37:29;;;;;;;10.73;1.40;;;;;;;;;;5034771;28;20451;-81
2021/10/04 10:39:59;;;;;;;7.63;1.50;;;;;;;;;;5021954;28;20525;-81
2021/10/04 10:42:27;;;;;;;8.53;1.20;;;;;;;;;;5037206;28;20563;-81
2021/10/04 10:45:16;;;;;;;8.83;1.47;;;;;;;;;;5021413;28;20458;-83
2021/10/04 10:48:00;;;;;;;9.03;1.33;;;;;;;;;;5023533;28;20462;-83
2021/10/04 10:50:31;;;;;;;8.70;1.47;;;;;;;;;;5035754;28;20459;-82
2021/10/04 10:53:09;;;;;;;8.87;1.23;;;;;;;;;;5035888;28;20453;-83
2021/10/04 10:55:41;;;;;;;10.03;1.63;;;;;;;;;;5034262;28;20473;-81
2021/10/04 10:58:12;;;;;;;9.57;1.30;;;;;;;;;;5037137;28;20449;-81
2021/10/04 11:00:40;;;;;;;7.70;1.10;;;;;;;;;;5033397;28;20455;-81
2021/10/04 11:03:08;;;;;;;9.00;1.43;;;;;;;;;;5035375;28;20448;-82
2021/10/04 11:05:54;;;;;;;12.77;1.50;;;;;;;;;;5036038;28;20495;-81
2021/10/04 11:08:23;;;;;;;8.97;1.20;;;;;;;;;;5036332;28;20445;-83
2021/10/04 11:11:14;;;;;;;8.87;1.30;;;;;;;;;;5035147;28;20463;-82
2021/10/04 11:13:43;;;;;;;8.50;1.20;;;;;;;;;;5036131;28;20940;-82
2021/10/04 11:16:28;;;;;;;8.77;1.30;;;;;;;;;;5035346;28;20464;-82
2021/10/04 11:18:56;;;;;;;8.43;1.30;;;;;;;;;;5033404;28;20535;-83
2021/10/04 11:21:24;;;;;;;10.23;1.50;;;;;;;;;;5030097;28;20493;-81
2021/10/04 11:23:53;;;;;;;10.80;1.70;;;;;;;;;;5036314;28;20547;-82
2021/10/04 11:26:22;;;;;;;8.50;1.30;;;;;;;;;;5041889;28;20480;-82
2021/10/04 11:28:52;;;;;;;7.97;0.90;;;;;;;;;;5045893;28;20456;-82
2021/10/04 11:31:21;;;;;;;7.97;1.27;;;;;;;;;;5038715;28;20439;-84
2021/10/04 11:33:49;;;;;;;7.27;1.20;;;;;;;;;;5037726;28;20455;-81
2021/10/04 11:36:16;;;;;;;11.10;1.50;;;;;;;;;;5030850;28;20856;-82
2021/10/04 11:38:46;;;;;;;8.23;1.27;;;;;;;;;;5031314;28;20445;-83
2021/10/04 11:41:13;;;;;;;7.60;1.20;;;;;;;;;;5036348;28;20487;-83
2021/10/04 11:43:43;;;;;;;9.60;0.90;;;;;;;;;;5038120;28;20437;-82
2021/10/04 11:46:17;;;;;;;9.83;1.60;;;;;;;;;;5034404;28;20469;-83
2021/10/04 11:48:44;;;;;;;8.47;1.20;;;;;;;;;;5037179;28;20800;-83
2021/10/04 11:51:16;;;;;;;8.50;1.43;;;;;;;;;;5038218;28;20476;-84
2021/10/04 11:53:43;;;;;;;8.57;1.17;;;;;;;;;;5036732;28;20440;-83
2021/10/04 11:56:12;;;;;;;8.63;1.20;;;;;;;;;;5032494;28;20468;-83
2021/10/04 11:58:49;;;;;;;8.33;1.20;;;;;;;;;;5038606;28;20451;-82
2021/10/04 12:01:28;;;;;;;7.90;1.00;;;;;;;;;;5038075;28;20471;-84
2021/10/04 12:04:00;;;;;;;8.53;1.17;;;;;;;;;;5026310;28;20901;-83
2021/10/04 12:06:28;;;;;;;8.93;1.20;;;;;;;;;;5029906;28;20469;-83
2021/10/04 12:08:55;;;;;;;8.73;1.30;;;;;;;;;;5033539;28;20487;-84
2021/10/04 12:11:22;;;;;;;8.87;1.17;;;;;;;;;;5022531;28;20441;-83
2021/10/04 12:13:51;;;;;;;11.00;1.70;;;;;;;;;;5033689;28;20445;-84
2021/10/04 12:16:18;;;;;;;8.00;0.80;;;;;;;;;;5033975;28;20471;-83
2021/10/04 12:18:46;;;;;;;10.53;1.13;;;;;;;;;;5033890;28;20464;-86
2021/10/04 12:21:17;;;;;;;9.07;1.10;;;;;;;;;;5036109;28;20512;-82
2021/10/04 12:23:45;;;;;;;9.03;1.20;;;;;;;;;;5044997;28;20428;-84
2021/10/04 12:26:13;;;;;;;9.90;1.17;;;;;;;;;;5052107;28;20476;-83
2021/10/04 12:28:46;;;;;;;11.73;1.20;;;;;;;;;;5050816;28;20501;-82
2021/10/04 12:31:28;;;;;;;9.00;0.93;;;;;;;;;;5036130;28;20445;-81
2021/10/04 12:33:57;;;;;;;7.40;0.90;;;;;;;;;;5037159;28;20452;-81
2021/10/04 12:36:24;;;;;;;8.47;1.10;;;;;;;;;;5039750;28;20475;-83
2021/10/04 12:38:53;;;;;;;8.70;1.10;;;;;;;;;;5040066;28;20457;-82
2021/10/04 12:41:20;;;;;;;9.20;1.43;;;;;;;;;;5041344;28;20488;-82
2021/10/04 12:43:48;;;;;;;9.40;1.07;;;;;;;;;;5043628;28;20509;-84
2021/10/04 12:46:18;;;;;;;12.30;1.10;;;;;;;;;;5059267;28;20526;-81
2021/10/04 12:48:46;;;;;;;9.50;1.10;;;;;;;;;;5065273;28;20454;-81
2021/10/04 12:51:17;;;;;;;9.70;1.30;;;;;;;;;;5061855;28;20459;-83
2021/10/04 12:53:45;;;;;;;9.30;1.40;;;;;;;;;;5046571;28;20461;-82
2021/10/04 12:56:12;;;;;;;8.97;1.10;;;;;;;;;;5044572;28;20480;-82
2021/10/04 12:58:40;;;;;;;8.73;1.00;;;;;;;;;;5049051;28;20449;-83
2021/10/04 13:01:12;;;;;;;8.20;1.10;;;;;;;;;;5056246;28;20606;-83
2021/10/04 13:03:55;;;;;;;8.80;1.17;;;;;;;;;;5019711;28;20504;-82
2021/10/04 13:06:28;;;;;;;7.63;1.03;;;;;;;;;;5026555;28;20572;-83
2021/10/04 13:08:55;;;;;;;9.43;1.37;;;;;;;;;;5039148;28;20512;-83
2021/10/04 13:11:23;;;;;;;7.90;1.03;;;;;;;;;;5035208;28;20453;-81
2021/10/04 13:13:50;;;;;;;8.30;1.07;;;;;;;;;;5025208;28;20457;-82
2021/10/04 13:16:17;;;;;;;8.57;1.13;;;;;;;;;;5039073;28;20482;-81
2021/10/04 13:18:44;;;;;;;9.13;1.00;;;;;;;;;;5038757;28;20560;-83
2021/10/04 13:21:12;;;;;;;10.77;1.30;;;;;;;;;;5038552;28;20532;-80
2021/10/04 13:23:40;;;;;;;8.10;1.13;;;;;;;;;;5027663;28;20461;-80
2021/10/04 13:26:08;;;;;;;7.70;1.00;;;;;;;;;;5047514;28;20482;-80
2021/10/04 13:28:36;;;;;;;8.57;1.10;;;;;;;;;;5044685;28;20456;-81
2021/10/04 13:31:04;;;;;;;7.80;1.10;;;;;;;;;;5044853;28;20511;-81
2021/10/04 13:33:31;;;;;;;8.77;1.10;;;;;;;;;;5035416;28;20445;-82
2021/10/04 13:35:58;;;;;;;8.80;1.00;;;;;;;;;;5046948;28;20457;-82
2021/10/04 13:38:30;;;;;;;7.70;1.00;;;;;;;;;;5042942;28;20461;-82
2021/10/04 13:40:58;;;;;;;8.13;1.17;;;;;;;;;;5043601;28;20456;-83
2021/10/04 13:43:26;;;;;;;7.90;1.00;;;;;;;;;;5043786;28;20480;-81
2021/10/04 13:45:53;;;;;;;10.37;1.10;;;;;;;;;;5045283;28;20491;-79
2021/10/04 13:48:20;;;;;;;10.63;1.03;;;;;;;;;;5044784;28;20459;-80
2021/10/04 13:50:47;;;;;;;7.97;0.80;;;;;;;;;;5042602;28;20475;-80
2021/10/04 13:53:14;;;;;;;7.80;0.87;;;;;;;;;;5026044;28;20450;-81
2021/10/04 13:55:41;;;;;;;7.80;0.90;;;;;;;;;;5032572;28;20488;-80
2021/10/04 13:58:10;;;;;;;8.70;1.10;;;;;;;;;;5041808;28;20457;-82
2021/10/04 14:00:37;;;;;;;9.40;1.40;;;;;;;;;;5042340;28;20459;-82
2021/10/04 14:03:04;;;;;;;10.53;1.10;;;;;;;;;;5037420;28;21041;-83
2021/10/04 14:05:32;;;;;;;8.60;1.23;;;;;;;;;;5037768;28;20492;-82
2021/10/04 14:07:59;;;;;;;9.67;1.03;;;;;;;;;;5038060;28;20461;-82
2021/10/04 14:10:26;;;;;;;7.90;1.00;;;;;;;;;;5034902;28;20453;-82
2021/10/04 14:12:54;;;;;;;10.40;0.93;;;;;;;;;;5036835;28;20455;-82
2021/10/04 14:15:23;;;;;;;10.00;1.30;;;;;;;;;;5044071;28;20913;-82
2021/10/04 14:17:51;;;;;;;8.10;1.10;;;;;;;;;;5034870;28;20469;-80
2021/10/04 14:20:18;;;;;;;8.20;1.27;;;;;;;;;;5042229;28;20492;-82
2021/10/04 14:22:45;;;;;;;10.50;1.17;;;;;;;;;;5045635;28;20483;-84
2021/10/04 14:25:14;;;;;;;7.70;0.90;;;;;;;;;;5062084;28;20429;-81
2021/10/04 14:27:41;;;;;;;7.80;1.00;;;;;;;;;;5046950;28;21291;-81
2021/10/04 14:30:09;;;;;;;9.67;1.20;;;;;;;;;;5043744;28;20830;-84
2021/10/04 14:32:39;;;;;;;10.97;1.40;;;;;;;;;;5032498;28;20520;-81
2021/10/04 14:35:07;;;;;;;8.10;1.10;;;;;;;;;;5029225;28;20800;-81
2021/10/04 14:37:34;;;;;;;10.93;1.50;;;;;;;;;;5032945;28;20446;-81
2021/10/04 14:40:03;;;;;;;9.30;1.30;;;;;;;;;;5034640;28;20443;-82
2021/10/04 14:42:30;;;;;;;10.20;1.03;;;;;;;;;;5032704;28;20493;-84
2021/10/04 14:44:57;;;;;;;7.80;1.00;;;;;;;;;;5032987;28;20452;-82
2021/10/04 14:47:24;;;;;;;8.80;1.40;;;;;;;;;;5036945;28;22386;-84